createdAt,value
2018-10-07T00:00:15.927Z,60.80
2018-10-07T00:01:15.941Z,62.40
2018-10-07T00:02:15.965Z,62.50
2018-10-07T00:03:16.070Z,62.60
2018-10-07T00:04:16.092Z,61.80
2018-10-07T00:06:16.414Z,63.50
2018-10-07T00:07:16.029Z,62.70
2018-10-07T00:08:16.043Z,65.20
2018-10-07T00:09:16.061Z,63.60
2018-10-07T00:10:16.172Z,64.40
2018-10-07T00:11:16.088Z,63.20
2018-10-07T00:12:16.105Z,65.30
2018-10-07T00:13:16.171Z,65.00
2018-10-07T00:14:16.199Z,65.60
2018-10-07T00:15:16.206Z,65.20
2018-10-07T00:16:16.163Z,68.30
2018-10-07T00:17:16.174Z,68.40
2018-10-07T00:18:16.193Z,65.60
2018-10-07T00:19:16.270Z,66.90
2018-10-07T00:20:16.223Z,68.50
2018-10-07T00:21:16.232Z,67.80
2018-10-07T00:22:16.259Z,67.20
2018-10-07T00:23:16.298Z,68.50
2018-10-07T00:24:16.277Z,67.40
2018-10-07T00:25:16.293Z,67.30
2018-10-07T00:26:16.307Z,66.30
2018-10-07T00:27:16.320Z,67.70
2018-10-07T00:28:16.337Z,68.60
2018-10-07T00:29:16.349Z,67.20
2018-10-07T00:30:16.368Z,66.30
2018-10-07T00:31:16.380Z,65.10
2018-10-07T00:32:16.395Z,67.30
2018-10-07T00:33:16.412Z,67.90
2018-10-07T00:34:16.473Z,67.90
2018-10-07T00:37:16.486Z,66.00
2018-10-07T00:38:16.770Z,64.90
2018-10-07T00:39:16.497Z,66.50
2018-10-07T00:40:16.512Z,64.90
2018-10-07T00:41:16.526Z,66.30
2018-10-07T00:42:16.541Z,65.30
2018-10-07T00:43:16.981Z,63.60
2018-10-07T00:44:16.574Z,67.50
2018-10-07T00:45:16.585Z,65.10
2018-10-07T00:46:16.825Z,66.20
2018-10-07T00:47:16.674Z,67.40
2018-10-07T00:48:16.628Z,64.90
2018-10-07T00:49:16.646Z,67.80
2018-10-07T00:50:16.656Z,66.30
2018-10-07T00:51:16.672Z,65.10
2018-10-07T00:52:16.689Z,67.00
2018-10-07T00:53:16.705Z,65.20
2018-10-07T00:54:16.717Z,66.20
2018-10-07T00:55:16.731Z,64.90
2018-10-07T00:56:16.747Z,63.90
2018-10-07T00:57:16.761Z,66.40
2018-10-07T00:58:16.774Z,65.30
2018-10-07T00:59:16.789Z,66.30
2018-10-07T01:00:16.816Z,64.50
2018-10-07T01:01:16.820Z,63.80
2018-10-07T01:02:16.833Z,64.80
2018-10-07T01:03:16.847Z,64.40
2018-10-07T01:04:16.865Z,63.50
2018-10-07T01:05:16.880Z,65.60
2018-10-07T01:06:16.892Z,64.50
2018-10-07T01:07:16.956Z,63.70
2018-10-07T01:08:17.245Z,63.80
2018-10-07T01:09:17.349Z,64.70
2018-10-07T01:10:16.952Z,61.50
2018-10-07T01:11:16.964Z,62.40
2018-10-07T01:12:16.978Z,63.10
2018-10-07T01:13:16.992Z,63.20
2018-10-07T01:14:17.007Z,62.10
2018-10-07T01:15:17.022Z,62.40
2018-10-07T01:16:17.034Z,62.40
2018-10-07T01:17:17.054Z,63.50
2018-10-07T01:20:17.439Z,60.30
2018-10-07T01:21:17.111Z,59.30
2018-10-07T01:22:17.123Z,60.40
2018-10-07T01:23:17.431Z,60.30
2018-10-07T01:24:17.152Z,60.80
2018-10-07T01:25:17.170Z,60.50
2018-10-07T01:26:17.179Z,58.70
2018-10-07T01:27:17.196Z,58.30
2018-10-07T01:28:17.210Z,59.20
2018-10-07T01:29:17.288Z,58.60
2018-10-07T01:30:17.239Z,58.10
2018-10-07T01:31:17.256Z,58.80
2018-10-07T01:32:17.269Z,57.10
2018-10-07T01:33:19.654Z,57.40
2018-10-07T01:34:17.326Z,57.90
2018-10-07T01:35:17.319Z,58.10
2018-10-07T01:36:17.331Z,59.00
2018-10-07T01:37:17.341Z,56.70
2018-10-07T01:38:17.516Z,56.70
2018-10-07T01:40:17.467Z,56.20
2018-10-07T01:42:17.828Z,54.50
2018-10-07T01:43:20.417Z,52.90
2018-10-07T01:44:18.120Z,53.40
2018-10-07T01:45:18.989Z,52.80
2018-10-07T01:46:19.799Z,53.00
2018-10-07T01:48:17.932Z,49.60
2018-10-07T01:49:17.517Z,49.60
2018-10-07T01:50:17.554Z,50.40
2018-10-07T01:51:17.682Z,50.40
2018-10-07T01:52:17.567Z,48.30
2018-10-07T01:53:17.584Z,48.60
2018-10-07T01:54:17.590Z,45.90
2018-10-07T01:55:17.603Z,44.80
2018-10-07T01:56:17.617Z,45.50
2018-10-07T01:57:17.633Z,45.90
2018-10-07T01:58:17.647Z,42.20
2018-10-07T01:59:17.718Z,42.70
2018-10-07T02:00:17.678Z,40.70
2018-10-07T02:01:17.696Z,39.20
2018-10-07T02:02:17.712Z,39.60
2018-10-07T02:04:17.734Z,38.90
2018-10-07T02:05:17.751Z,39.60
2018-10-07T02:06:17.905Z,37.10
2018-10-07T02:07:17.778Z,37.80
2018-10-07T02:08:17.795Z,37.60
2018-10-07T02:09:17.855Z,38.10
2018-10-07T02:11:17.840Z,36.30
2018-10-07T02:12:17.852Z,35.70
2018-10-07T02:13:17.900Z,33.90
2018-10-07T02:14:17.881Z,34.40
2018-10-07T02:15:17.895Z,34.20
2018-10-07T02:16:17.933Z,34.50
2018-10-07T02:17:17.947Z,33.30
2018-10-07T02:18:17.942Z,32.60
2018-10-07T02:19:17.955Z,31.40
2018-10-07T02:20:17.966Z,33.30
2018-10-07T02:21:17.986Z,33.10
2018-10-07T02:22:17.998Z,34.80
2018-10-07T02:23:18.014Z,33.80
2018-10-07T02:24:18.413Z,35.00
2018-10-07T02:25:18.345Z,33.50
2018-10-07T02:26:19.013Z,35.20
2018-10-07T02:27:18.084Z,33.70
2018-10-07T02:28:18.087Z,33.20
2018-10-07T02:29:18.102Z,31.30
2018-10-07T02:30:18.118Z,30.80
2018-10-07T02:31:18.126Z,30.70
2018-10-07T02:32:18.147Z,30.60
2018-10-07T02:33:18.168Z,28.80
2018-10-07T02:34:18.169Z,29.00
2018-10-07T02:35:18.183Z,26.90
2018-10-07T02:36:18.200Z,27.10
2018-10-07T02:37:18.226Z,25.40
2018-10-07T02:38:18.352Z,26.40
2018-10-07T02:39:18.241Z,22.60
2018-10-07T02:40:18.262Z,22.50
2018-10-07T02:41:18.288Z,20.40
2018-10-07T02:42:18.285Z,19.30
2018-10-07T02:43:18.300Z,19.50
2018-10-07T02:44:18.316Z,19.60
2018-10-07T02:45:18.412Z,17.50
2018-10-07T02:47:18.360Z,17.80
2018-10-07T02:48:18.382Z,17.70
2018-10-07T02:49:18.385Z,16.30
2018-10-07T02:50:18.398Z,15.90
2018-10-07T02:51:18.413Z,16.40
2018-10-07T02:52:18.427Z,16.00
2018-10-07T02:53:18.598Z,15.40
2018-10-07T02:54:18.473Z,15.20
2018-10-07T02:56:18.488Z,15.20
2018-10-07T02:57:18.498Z,14.70
2018-10-07T02:58:18.515Z,14.80
2018-10-07T02:59:18.923Z,14.50
2018-10-07T03:00:18.546Z,14.80
2018-10-07T03:01:18.562Z,14.80
2018-10-07T03:02:18.583Z,13.90
2018-10-07T03:03:18.586Z,13.70
2018-10-07T03:04:18.599Z,14.30
2018-10-07T03:05:18.615Z,13.90
2018-10-07T03:06:18.634Z,12.90
2018-10-07T03:07:18.642Z,13.20
2018-10-07T03:08:18.654Z,12.60
2018-10-07T03:09:18.676Z,12.80
2018-10-07T03:10:18.684Z,12.80
2018-10-07T03:11:18.699Z,13.00
2018-10-07T03:12:18.713Z,12.70
2018-10-07T03:13:18.738Z,12.40
2018-10-07T03:14:18.749Z,12.70
2018-10-07T03:15:18.758Z,12.20
2018-10-07T03:16:18.824Z,12.70
2018-10-07T03:17:18.783Z,12.90
2018-10-07T03:18:18.899Z,12.70
2018-10-07T03:19:18.960Z,12.60
2018-10-07T03:20:19.142Z,13.20
2018-10-07T03:21:18.845Z,11.30
2018-10-07T03:22:18.906Z,11.30
2018-10-07T03:23:18.874Z,10.80
2018-10-07T03:24:18.888Z,9.40
2018-10-07T03:25:18.901Z,9.50
2018-10-07T03:26:18.914Z,9.90
2018-10-07T03:27:18.927Z,9.50
2018-10-07T03:28:18.945Z,10.40
2018-10-07T03:29:18.972Z,10.30
2018-10-07T03:30:18.968Z,10.70
2018-10-07T03:32:19.466Z,10.40
2018-10-07T03:33:19.012Z,9.90
2018-10-07T03:34:19.026Z,9.50
2018-10-07T03:35:19.045Z,8.40
2018-10-07T03:36:19.071Z,8.60
2018-10-07T03:37:19.067Z,8.20
2018-10-07T03:38:19.092Z,7.90
2018-10-07T03:39:19.244Z,7.60
2018-10-07T03:40:19.111Z,6.90
2018-10-07T03:41:19.127Z,6.10
2018-10-07T03:42:19.136Z,6.40
2018-10-07T03:43:19.151Z,6.10
2018-10-07T03:44:19.168Z,6.20
2018-10-07T03:45:19.190Z,5.50
2018-10-07T03:46:19.196Z,6.00
2018-10-07T03:47:19.210Z,5.20
2018-10-07T03:48:19.224Z,5.40
2018-10-07T03:49:19.307Z,5.60
2018-10-07T03:50:19.249Z,5.30
2018-10-07T03:54:19.306Z,5.10
2018-10-07T03:55:19.323Z,4.70
2018-10-07T03:56:19.349Z,4.70
2018-10-07T03:57:19.349Z,4.60
2018-10-07T03:58:19.365Z,4.30
2018-10-07T03:59:19.375Z,4.70
2018-10-07T04:00:19.389Z,5.00
2018-10-07T04:01:19.411Z,4.90
2018-10-07T04:02:19.419Z,5.20
2018-10-07T04:03:19.445Z,4.70
2018-10-07T04:04:19.444Z,5.00
2018-10-07T04:05:19.559Z,5.30
2018-10-07T04:06:19.774Z,5.30
2018-10-07T04:07:19.515Z,5.10
2018-10-07T04:08:19.504Z,5.60
2018-10-07T04:09:19.513Z,5.30
2018-10-07T04:10:19.533Z,5.70
2018-10-07T04:11:19.544Z,5.00
2018-10-07T04:12:19.565Z,5.20
2018-10-07T04:13:19.573Z,5.00
2018-10-07T04:14:19.594Z,4.60
2018-10-07T04:15:19.603Z,4.80
2018-10-07T04:16:19.610Z,4.10
2018-10-07T04:17:19.625Z,4.30
2018-10-07T04:18:19.642Z,3.80
2018-10-07T04:19:19.655Z,3.90
2018-10-07T04:20:19.670Z,3.90
2018-10-07T04:21:19.681Z,3.90
2018-10-07T04:22:19.696Z,3.90
2018-10-07T04:23:19.708Z,3.80
2018-10-07T04:24:19.978Z,3.60
2018-10-07T04:26:20.161Z,3.40
2018-10-07T04:28:20.108Z,3.70
2018-10-07T04:29:19.791Z,2.90
2018-10-07T04:30:19.805Z,3.20
2018-10-07T04:31:19.817Z,3.00
2018-10-07T04:32:19.833Z,2.80
2018-10-07T04:33:19.846Z,2.90
2018-10-07T04:34:19.860Z,3.10
2018-10-07T04:35:19.874Z,2.80
2018-10-07T04:36:19.890Z,2.50
2018-10-07T04:37:19.905Z,2.90
2018-10-07T04:39:20.537Z,2.20
2018-10-07T04:40:19.944Z,2.60
2018-10-07T04:41:19.959Z,2.50
2018-10-07T04:42:19.971Z,2.80
2018-10-07T04:43:19.984Z,2.40
2018-10-07T04:44:19.997Z,2.20
2018-10-07T04:45:20.014Z,2.00
2018-10-07T04:46:20.149Z,2.30
2018-10-07T04:47:20.041Z,2.40
2018-10-07T04:48:20.357Z,2.30
2018-10-07T04:49:20.065Z,2.40
2018-10-07T04:50:20.083Z,2.30
2018-10-07T04:51:20.098Z,2.20
2018-10-07T04:52:20.110Z,2.10
2018-10-07T04:53:20.123Z,2.40
2018-10-07T04:54:20.144Z,2.30
2018-10-07T04:55:20.154Z,2.10
2018-10-07T04:56:20.324Z,2.30
2018-10-07T04:58:20.189Z,2.20
2018-10-07T04:59:20.203Z,2.20
2018-10-07T05:00:20.260Z,2.00
2018-10-07T05:01:20.233Z,2.20
2018-10-07T05:02:20.243Z,2.20
2018-10-07T05:03:20.269Z,1.80
2018-10-07T05:04:20.298Z,2.10
2018-10-07T05:05:20.285Z,2.10
2018-10-07T05:06:20.303Z,2.20
2018-10-07T05:07:20.317Z,2.30
2018-10-07T05:08:20.329Z,2.50
2018-10-07T05:09:20.998Z,2.00
2018-10-07T05:10:20.352Z,2.20
2018-10-07T05:11:20.374Z,2.30
2018-10-07T05:12:20.568Z,2.60
2018-10-07T05:13:20.397Z,1.90
2018-10-07T05:14:20.408Z,1.90
2018-10-07T05:15:20.423Z,2.30
2018-10-07T05:16:20.786Z,2.30
2018-10-07T05:17:20.450Z,2.10
2018-10-07T05:18:20.463Z,2.00
2018-10-07T05:19:20.481Z,2.10
2018-10-07T05:20:20.490Z,2.30
2018-10-07T05:21:20.520Z,2.50
2018-10-07T05:22:20.519Z,2.00
2018-10-07T05:23:20.536Z,2.10
2018-10-07T05:24:20.548Z,1.80
2018-10-07T05:25:20.563Z,2.20
2018-10-07T05:26:20.575Z,2.00
2018-10-07T05:27:20.600Z,2.10
2018-10-07T05:29:20.645Z,2.10
2018-10-07T05:30:20.734Z,2.20
2018-10-07T05:31:20.640Z,2.00
2018-10-07T05:32:20.654Z,2.10
2018-10-07T05:33:20.688Z,2.40
2018-10-07T05:34:20.691Z,1.70
2018-10-07T05:35:20.697Z,1.90
2018-10-07T05:36:20.714Z,2.10
2018-10-07T05:37:20.726Z,1.90
2018-10-07T05:38:20.741Z,2.20
2018-10-07T05:39:20.752Z,2.30
2018-10-07T05:40:20.767Z,2.00
2018-10-07T05:41:20.823Z,1.80
2018-10-07T05:42:20.853Z,1.90
2018-10-07T05:43:20.806Z,1.90
2018-10-07T05:44:20.934Z,1.90
2018-10-07T05:45:20.837Z,2.10
2018-10-07T05:46:20.847Z,2.10
2018-10-07T05:47:20.873Z,1.70
2018-10-07T05:48:20.875Z,2.10
2018-10-07T05:49:20.890Z,1.80
2018-10-07T05:50:20.902Z,2.10
2018-10-07T05:51:20.922Z,2.20
2018-10-07T05:52:20.992Z,2.10
2018-10-07T05:53:20.943Z,2.00
2018-10-07T05:54:20.957Z,2.20
2018-10-07T05:55:20.972Z,2.20
2018-10-07T05:56:21.000Z,1.90
2018-10-07T05:57:20.999Z,2.00
2018-10-07T05:58:21.285Z,1.90
2018-10-07T05:59:21.027Z,2.00
2018-10-07T06:00:21.039Z,1.60
2018-10-07T06:01:21.108Z,1.70
2018-10-07T06:03:21.837Z,1.90
2018-10-07T06:04:21.149Z,1.60
2018-10-07T06:05:21.114Z,2.00
2018-10-07T06:06:21.123Z,1.80
2018-10-07T06:07:21.135Z,1.80
2018-10-07T06:08:21.148Z,1.40
2018-10-07T06:09:21.166Z,1.80
2018-10-07T06:10:21.177Z,1.70
2018-10-07T06:11:21.247Z,1.60
2018-10-07T06:12:21.208Z,1.50
2018-10-07T06:13:21.218Z,1.50
2018-10-07T06:14:21.232Z,1.60
2018-10-07T06:17:21.656Z,1.30
2018-10-07T06:18:21.312Z,1.50
2018-10-07T06:19:21.300Z,1.40
2018-10-07T06:20:21.316Z,1.40
2018-10-07T06:21:21.340Z,1.20
2018-10-07T06:22:21.344Z,1.30
2018-10-07T06:23:21.369Z,1.30
2018-10-07T06:24:21.368Z,1.10
2018-10-07T06:25:21.381Z,1.30
2018-10-07T06:26:21.395Z,1.50
2018-10-07T06:27:21.408Z,1.50
2018-10-07T06:28:21.421Z,1.30
2018-10-07T06:29:21.446Z,1.20
2018-10-07T06:30:21.448Z,1.30
2018-10-07T06:31:21.462Z,1.10
2018-10-07T06:32:21.523Z,1.50
2018-10-07T06:35:21.510Z,1.30
2018-10-07T06:36:21.525Z,1.30
2018-10-07T06:37:21.537Z,1.70
2018-10-07T06:38:21.558Z,1.40
2018-10-07T06:39:21.569Z,1.50
2018-10-07T06:40:21.579Z,1.50
2018-10-07T06:41:21.640Z,1.40
2018-10-07T06:42:21.606Z,1.40
2018-10-07T06:43:21.620Z,1.60
2018-10-07T06:44:21.648Z,1.50
2018-10-07T06:45:21.690Z,1.20
2018-10-07T06:46:21.662Z,1.40
2018-10-07T06:47:21.675Z,1.40
2018-10-07T06:48:21.692Z,1.40
2018-10-07T06:49:21.704Z,1.20
2018-10-07T06:50:21.884Z,1.50
2018-10-07T06:51:21.736Z,1.30
2018-10-07T06:52:21.742Z,1.50
2018-10-07T06:53:21.758Z,1.10
2018-10-07T06:54:21.774Z,1.20
2018-10-07T06:55:21.787Z,1.40
2018-10-07T06:56:21.799Z,1.10
2018-10-07T06:57:21.833Z,1.20
2018-10-07T06:58:21.827Z,1.50
2018-10-07T06:59:21.852Z,1.30
2018-10-07T07:00:21.854Z,1.40
2018-10-07T07:01:21.870Z,1.00
2018-10-07T07:02:21.878Z,1.20
2018-10-07T07:04:22.020Z,1.00
2018-10-07T07:05:22.128Z,1.00
2018-10-07T07:06:22.229Z,1.30
2018-10-07T07:07:22.378Z,1.10
2018-10-07T07:08:21.966Z,1.00
2018-10-07T07:09:21.975Z,1.10
2018-10-07T07:10:21.988Z,1.20
2018-10-07T07:11:22.003Z,1.00
2018-10-07T07:12:22.017Z,1.20
2018-10-07T07:13:22.031Z,1.00
2018-10-07T07:14:22.047Z,1.00
2018-10-07T07:15:22.058Z,1.10
2018-10-07T07:16:22.072Z,1.10
2018-10-07T07:17:22.089Z,1.00
2018-10-07T07:18:22.103Z,1.20
2018-10-07T07:19:22.114Z,1.10
2018-10-07T07:20:22.154Z,1.10
2018-10-07T07:21:22.147Z,1.20
2018-10-07T07:22:22.154Z,1.10
2018-10-07T07:23:22.270Z,1.30
2018-10-07T07:24:22.331Z,1.70
2018-10-07T07:25:22.425Z,1.30
2018-10-07T07:26:22.208Z,1.10
2018-10-07T07:27:22.224Z,1.20
2018-10-07T07:28:22.241Z,1.00
2018-10-07T07:29:22.254Z,1.00
2018-10-07T07:30:22.263Z,1.20
2018-10-07T07:31:22.309Z,1.10
2018-10-07T07:32:22.294Z,1.00
2018-10-07T07:33:22.354Z,1.30
2018-10-07T07:37:22.367Z,1.40
2018-10-07T07:38:22.376Z,1.20
2018-10-07T07:39:22.389Z,1.00
2018-10-07T07:40:22.402Z,1.30
2018-10-07T07:41:22.415Z,1.10
2018-10-07T07:42:22.496Z,1.20
2018-10-07T07:43:22.444Z,1.10
2018-10-07T07:44:22.456Z,1.10
2018-10-07T07:45:22.471Z,1.20
2018-10-07T07:46:22.488Z,1.20
2018-10-07T07:47:22.497Z,1.50
2018-10-07T07:48:22.514Z,1.10
2018-10-07T07:49:22.525Z,1.40
2018-10-07T07:50:22.537Z,1.50
2018-10-07T07:51:22.553Z,1.20
2018-10-07T07:52:22.564Z,1.20
2018-10-07T07:53:22.578Z,1.00
2018-10-07T07:54:22.591Z,0.90
2018-10-07T07:55:22.605Z,1.10
2018-10-07T07:57:22.640Z,1.00
2018-10-07T07:59:23.245Z,1.10
2018-10-07T08:00:22.680Z,1.20
2018-10-07T08:01:22.692Z,1.10
2018-10-07T08:02:22.701Z,1.00
2018-10-07T08:03:22.715Z,1.10
2018-10-07T08:04:22.729Z,1.00
2018-10-07T08:05:22.747Z,1.20
2018-10-07T08:06:22.769Z,1.00
2018-10-07T08:07:22.942Z,1.00
2018-10-07T08:08:23.225Z,1.10
2018-10-07T08:09:23.170Z,1.10
2018-10-07T08:10:22.811Z,1.10
2018-10-07T08:11:22.826Z,1.10
2018-10-07T08:12:22.846Z,1.20
2018-10-07T08:13:22.853Z,0.80
2018-10-07T08:14:22.865Z,1.40
2018-10-07T08:15:22.879Z,1.00
2018-10-07T08:16:22.894Z,1.00
2018-10-07T08:17:22.953Z,1.00
2018-10-07T08:18:22.922Z,1.10
2018-10-07T08:19:23.241Z,1.00
2018-10-07T08:20:22.949Z,1.10
2018-10-07T08:21:22.966Z,1.30
2018-10-07T08:22:22.991Z,1.20
2018-10-07T08:23:23.040Z,1.20
2018-10-07T08:24:23.007Z,1.00
2018-10-07T08:25:23.026Z,0.90
2018-10-07T08:26:23.032Z,0.90
2018-10-07T08:27:23.047Z,1.10
2018-10-07T08:28:23.072Z,1.10
2018-10-07T08:29:23.144Z,1.10
2018-10-07T08:30:23.195Z,1.30
2018-10-07T08:31:23.511Z,1.30
2018-10-07T08:32:23.116Z,1.40
2018-10-07T08:33:23.134Z,1.00
2018-10-07T08:34:23.144Z,1.20
2018-10-07T08:35:23.275Z,0.90
2018-10-07T08:36:23.174Z,1.20
2018-10-07T08:37:23.185Z,1.20
2018-10-07T08:38:23.200Z,1.20
2018-10-07T08:39:23.267Z,1.10
2018-10-07T08:41:23.962Z,1.20
2018-10-07T08:42:23.259Z,1.20
2018-10-07T08:43:23.271Z,0.90
2018-10-07T08:44:23.285Z,1.10
2018-10-07T08:45:23.308Z,1.20
2018-10-07T08:46:23.311Z,1.00
2018-10-07T08:47:23.327Z,1.10
2018-10-07T08:48:23.339Z,0.90
2018-10-07T08:49:23.353Z,1.20
2018-10-07T08:50:23.365Z,1.10
2018-10-07T08:51:23.385Z,1.20
2018-10-07T08:52:23.393Z,1.10
2018-10-07T08:53:23.414Z,1.10
2018-10-07T08:54:23.421Z,1.00
2018-10-07T08:55:23.435Z,0.80
2018-10-07T08:56:23.474Z,1.00
2018-10-07T08:57:23.463Z,0.90
2018-10-07T08:58:23.481Z,0.90
2018-10-07T08:59:23.490Z,1.10
2018-10-07T09:00:23.505Z,1.30
2018-10-07T09:01:23.735Z,1.10
2018-10-07T09:02:23.935Z,1.10
2018-10-07T09:03:23.552Z,1.10
2018-10-07T09:04:23.566Z,1.10
2018-10-07T09:05:23.577Z,1.10
2018-10-07T09:06:23.589Z,1.10
2018-10-07T09:07:23.604Z,1.00
2018-10-07T09:08:23.615Z,0.90
2018-10-07T09:09:23.631Z,0.90
2018-10-07T09:10:23.647Z,1.10
2018-10-07T09:11:23.664Z,1.40
2018-10-07T09:12:23.673Z,0.90
2018-10-07T09:13:23.685Z,1.10
2018-10-07T09:14:23.700Z,1.10
2018-10-07T09:15:23.718Z,1.00
2018-10-07T09:16:23.832Z,0.90
2018-10-07T09:17:23.963Z,1.30
2018-10-07T09:18:24.027Z,1.40
2018-10-07T09:19:23.829Z,0.90
2018-10-07T09:20:23.796Z,1.00
2018-10-07T09:21:23.803Z,1.00
2018-10-07T09:22:23.995Z,1.10
2018-10-07T09:23:23.830Z,1.00
2018-10-07T09:24:23.838Z,1.30
2018-10-07T09:25:23.853Z,1.00
2018-10-07T09:26:23.870Z,0.90
2018-10-07T09:27:24.070Z,1.00
2018-10-07T09:28:23.896Z,1.10
2018-10-07T09:29:23.910Z,1.10
2018-10-07T09:30:24.026Z,1.10
2018-10-07T09:31:24.101Z,1.00
2018-10-07T09:33:24.356Z,1.20
2018-10-07T09:34:23.984Z,1.10
2018-10-07T09:35:24.002Z,1.10
2018-10-07T09:36:24.014Z,1.00
2018-10-07T09:37:24.021Z,1.20
2018-10-07T09:38:24.036Z,1.10
2018-10-07T09:39:24.102Z,1.10
2018-10-07T09:40:24.065Z,1.30
2018-10-07T09:41:24.077Z,1.10
2018-10-07T09:42:24.095Z,1.20
2018-10-07T09:43:24.111Z,1.20
2018-10-07T09:44:24.131Z,1.30
2018-10-07T09:45:24.136Z,1.10
2018-10-07T09:46:24.148Z,1.20
2018-10-07T09:47:24.183Z,1.20
2018-10-07T09:50:24.233Z,1.20
2018-10-07T09:51:24.218Z,1.20
2018-10-07T09:52:24.272Z,1.30
2018-10-07T09:53:24.247Z,1.30
2018-10-07T09:54:24.259Z,1.30
2018-10-07T09:55:24.274Z,1.60
2018-10-07T09:56:24.288Z,1.10
2018-10-07T09:57:24.304Z,1.60
2018-10-07T09:58:24.318Z,1.30
2018-10-07T09:59:24.646Z,1.10
2018-10-07T10:00:24.347Z,1.50
2018-10-07T10:01:24.439Z,1.20
2018-10-07T10:02:24.374Z,1.30
2018-10-07T10:03:24.447Z,1.20
2018-10-07T10:04:24.512Z,1.30
2018-10-07T10:05:24.445Z,1.20
2018-10-07T10:06:24.557Z,1.10
2018-10-07T10:07:24.442Z,1.20
2018-10-07T10:08:24.722Z,1.10
2018-10-07T10:09:24.475Z,1.30
2018-10-07T10:10:24.486Z,1.30
2018-10-07T10:11:24.682Z,1.10
2018-10-07T10:12:24.515Z,1.60
2018-10-07T10:13:24.530Z,1.00
2018-10-07T10:14:24.544Z,1.30
2018-10-07T10:15:24.560Z,1.30
2018-10-07T10:16:24.571Z,1.20
2018-10-07T10:17:24.681Z,1.40
2018-10-07T10:20:24.626Z,1.50
2018-10-07T10:21:24.642Z,1.40
2018-10-07T10:22:24.673Z,1.20
2018-10-07T10:23:24.670Z,1.40
2018-10-07T10:24:24.685Z,1.20
2018-10-07T10:25:24.698Z,1.40
2018-10-07T10:26:24.711Z,1.30
2018-10-07T10:27:24.733Z,1.50
2018-10-07T10:28:24.740Z,1.50
2018-10-07T10:29:24.754Z,1.10
2018-10-07T10:30:24.860Z,1.20
2018-10-07T10:31:24.785Z,1.10
2018-10-07T10:32:24.796Z,1.30
2018-10-07T10:33:24.812Z,1.10
2018-10-07T10:34:24.829Z,1.20
2018-10-07T10:35:24.848Z,1.20
2018-10-07T10:36:24.862Z,1.20
2018-10-07T10:37:24.875Z,1.20
2018-10-07T10:38:24.889Z,1.10
2018-10-07T10:39:24.957Z,1.10
2018-10-07T10:40:25.271Z,1.10
2018-10-07T10:41:24.931Z,1.30
2018-10-07T10:42:24.938Z,1.00
2018-10-07T10:43:24.953Z,1.20
2018-10-07T10:44:24.966Z,1.20
2018-10-07T10:45:24.983Z,1.00
2018-10-07T10:46:24.997Z,1.20
2018-10-07T10:47:25.012Z,1.30
2018-10-07T10:48:25.085Z,1.10
2018-10-07T10:49:25.423Z,1.10
2018-10-07T10:50:25.061Z,1.20
2018-10-07T10:51:25.066Z,1.30
2018-10-07T10:52:25.080Z,1.10
2018-10-07T10:53:25.095Z,1.20
2018-10-07T10:54:25.108Z,0.90
2018-10-07T10:55:25.127Z,1.10
2018-10-07T10:56:25.139Z,1.00
2018-10-07T10:57:25.151Z,1.00
2018-10-07T10:58:25.165Z,1.30
2018-10-07T10:59:25.181Z,1.00
2018-10-07T11:00:25.196Z,1.30
2018-10-07T11:01:25.209Z,1.30
2018-10-07T11:02:25.222Z,1.20
2018-10-07T11:03:25.236Z,0.90
2018-10-07T11:04:25.308Z,1.00
2018-10-07T11:05:25.291Z,1.10
2018-10-07T11:06:25.282Z,1.00
2018-10-07T11:07:25.293Z,1.20
2018-10-07T11:08:25.309Z,1.10
2018-10-07T11:09:25.325Z,1.10
2018-10-07T11:10:25.339Z,1.20
2018-10-07T11:12:25.977Z,1.20
2018-10-07T11:13:25.380Z,1.30
2018-10-07T11:14:25.394Z,1.40
2018-10-07T11:15:25.480Z,1.40
2018-10-07T11:16:25.442Z,1.40
2018-10-07T11:17:25.438Z,1.20
2018-10-07T11:18:25.476Z,1.40
2018-10-07T11:19:25.665Z,1.30
2018-10-07T11:20:25.514Z,1.30
2018-10-07T11:21:25.498Z,1.40
2018-10-07T11:22:25.511Z,1.50
2018-10-07T11:23:25.529Z,1.30
2018-10-07T11:24:25.538Z,1.30
2018-10-07T11:25:25.551Z,1.30
2018-10-07T11:26:25.572Z,1.30
2018-10-07T11:27:25.593Z,1.10
2018-10-07T11:28:25.596Z,1.20
2018-10-07T11:29:25.610Z,1.10
2018-10-07T11:30:25.625Z,1.10
2018-10-07T11:31:25.642Z,1.30
2018-10-07T11:32:25.655Z,1.50
2018-10-07T11:33:25.672Z,1.40
2018-10-07T11:34:25.680Z,1.40
2018-10-07T11:35:25.695Z,1.50
2018-10-07T11:36:25.977Z,1.50
2018-10-07T11:37:25.722Z,1.20
2018-10-07T11:38:25.828Z,1.30
2018-10-07T11:39:25.758Z,1.10
2018-10-07T11:40:25.770Z,1.50
2018-10-07T11:41:25.783Z,1.60
2018-10-07T11:42:25.797Z,1.40
2018-10-07T11:43:25.811Z,1.50
2018-10-07T11:45:26.200Z,1.40
2018-10-07T11:46:25.853Z,1.70
2018-10-07T11:47:25.869Z,1.30
2018-10-07T11:48:25.887Z,1.60
2018-10-07T11:49:25.896Z,1.20
2018-10-07T11:50:25.925Z,1.40
2018-10-07T11:51:25.978Z,1.30
2018-10-07T11:52:26.465Z,1.40
2018-10-07T11:53:26.549Z,1.60
2018-10-07T11:54:26.027Z,1.40
2018-10-07T11:55:25.986Z,1.40
2018-10-07T11:56:25.997Z,1.50
2018-10-07T11:57:26.011Z,1.20
2018-10-07T11:58:26.025Z,1.50
2018-10-07T11:59:26.042Z,1.50
2018-10-07T12:00:26.053Z,1.30
2018-10-07T12:01:26.071Z,1.40
2018-10-07T12:02:26.082Z,1.50
2018-10-07T12:03:26.100Z,1.30
2018-10-07T12:04:26.122Z,1.50
2018-10-07T12:05:26.132Z,1.50
2018-10-07T12:06:26.139Z,1.70
2018-10-07T12:07:26.153Z,1.40
2018-10-07T12:08:26.168Z,1.40
2018-10-07T12:09:26.183Z,1.50
2018-10-07T12:10:26.202Z,1.40
2018-10-07T12:11:26.213Z,1.40
2018-10-07T12:12:26.230Z,1.60
2018-10-07T12:13:26.250Z,1.70
2018-10-07T12:14:26.258Z,1.50
2018-10-07T12:15:26.271Z,1.60
2018-10-07T12:16:26.365Z,1.60
2018-10-07T12:17:26.313Z,1.80
2018-10-07T12:18:26.418Z,1.60
2018-10-07T12:19:26.628Z,1.60
2018-10-07T12:20:26.382Z,1.50
2018-10-07T12:21:26.365Z,1.50
2018-10-07T12:22:26.368Z,1.90
2018-10-07T12:23:26.385Z,1.80
2018-10-07T12:25:26.523Z,1.30
2018-10-07T12:26:26.432Z,1.40
2018-10-07T12:27:26.441Z,1.50
2018-10-07T12:28:26.458Z,1.40
2018-10-07T12:29:26.473Z,1.50
2018-10-07T12:30:26.487Z,1.40
2018-10-07T12:31:26.498Z,1.40
2018-10-07T12:32:26.513Z,1.60
2018-10-07T12:33:26.529Z,1.40
2018-10-07T12:34:26.545Z,1.40
2018-10-07T12:35:26.563Z,1.50
2018-10-07T12:36:26.574Z,1.70
2018-10-07T12:37:26.586Z,1.70
2018-10-07T12:38:26.599Z,1.30
2018-10-07T12:39:26.617Z,1.50
2018-10-07T12:40:26.656Z,1.50
2018-10-07T12:41:26.646Z,1.90
2018-10-07T12:42:26.662Z,1.30
2018-10-07T12:43:26.678Z,1.60
2018-10-07T12:44:26.708Z,1.50
2018-10-07T12:45:26.707Z,1.40
2018-10-07T12:46:26.738Z,1.70
2018-10-07T12:47:26.755Z,1.80
2018-10-07T12:48:26.774Z,1.40
2018-10-07T12:49:26.767Z,1.70
2018-10-07T12:50:26.774Z,1.50
2018-10-07T12:51:26.814Z,2.00
2018-10-07T12:52:26.807Z,1.50
2018-10-07T12:53:26.821Z,1.60
2018-10-07T12:54:26.917Z,1.40
2018-10-07T12:55:26.859Z,1.60
2018-10-07T12:56:26.858Z,1.40
2018-10-07T12:57:26.985Z,1.80
2018-10-07T12:58:26.943Z,1.70
2018-10-07T12:59:27.208Z,2.00
2018-10-07T13:00:27.410Z,1.60
2018-10-07T13:01:27.549Z,1.80
2018-10-07T13:02:26.955Z,1.20
2018-10-07T13:03:26.967Z,1.50
2018-10-07T13:04:26.975Z,1.50
2018-10-07T13:05:26.991Z,1.50
2018-10-07T13:06:27.008Z,1.50
2018-10-07T13:07:27.021Z,1.70
2018-10-07T13:08:27.034Z,1.50
2018-10-07T13:09:27.113Z,1.50
2018-10-07T13:10:27.063Z,1.60
2018-10-07T13:11:27.078Z,1.40
2018-10-07T13:12:27.108Z,1.60
2018-10-07T13:13:27.110Z,1.40
2018-10-07T13:14:27.153Z,1.70
2018-10-07T13:15:27.143Z,1.40
2018-10-07T13:16:27.160Z,1.70
2018-10-07T13:17:27.165Z,1.80
2018-10-07T13:18:27.204Z,1.50
2018-10-07T13:20:27.213Z,1.60
2018-10-07T13:21:27.225Z,1.60
2018-10-07T13:22:27.243Z,1.50
2018-10-07T13:23:27.276Z,1.70
2018-10-07T13:24:27.404Z,1.50
2018-10-07T13:25:27.284Z,1.80
2018-10-07T13:26:27.298Z,1.50
2018-10-07T13:27:27.314Z,1.80
2018-10-07T13:28:27.331Z,1.70
2018-10-07T13:29:27.344Z,1.70
2018-10-07T13:31:27.509Z,1.90
2018-10-07T13:32:27.390Z,1.80
2018-10-07T13:33:27.572Z,1.70
2018-10-07T13:34:27.424Z,1.70
2018-10-07T13:35:27.433Z,1.80
2018-10-07T13:36:27.451Z,1.60
2018-10-07T13:37:27.464Z,1.50
2018-10-07T13:38:27.483Z,1.60
2018-10-07T13:39:27.602Z,1.90
2018-10-07T13:40:27.508Z,1.70
2018-10-07T13:41:27.523Z,2.00
2018-10-07T13:42:27.538Z,1.90
2018-10-07T13:43:27.554Z,1.70
2018-10-07T13:44:27.583Z,1.80
2018-10-07T13:45:27.583Z,1.80
2018-10-07T13:46:27.594Z,1.80
2018-10-07T13:47:27.611Z,1.90
2018-10-07T13:48:27.629Z,1.60
2018-10-07T13:49:27.642Z,1.70
2018-10-07T13:50:27.657Z,1.50
2018-10-07T13:51:27.671Z,1.80
2018-10-07T13:52:27.687Z,1.70
2018-10-07T13:53:27.819Z,1.60
2018-10-07T13:54:27.718Z,1.60